sensor_id;sensor_type;location;lat;lon;timestamp;temperature;humidity
21508;DHT22;10915;54.352;9.074;2024-03-02T00:00:07;6.40;99.90
21508;DHT22;10915;54.352;9.074;2024-03-02T00:02:47;6.50;99.90
21508;DHT22;10915;54.352;9.074;2024-03-02T00:05:17;6.50;99.90
21508;DHT22;10915;54.352;9.074;2024-03-02T00:07:44;6.60;99.90
21508;DHT22;10915;54.352;9.074;2024-03-02T00:10:11;6.70;99.90
21508;DHT22;10915;54.352;9.074;2024-03-02T00:12:40;6.70;99.90
21508;DHT22;10915;54.352;9.074;2024-03-02T00:17:56;6.80;99.90
21508;DHT22;10915;54.352;9.074;2024-03-02T00:20:22;6.80;99.90
21508;DHT22;10915;54.352;9.074;2024-03-02T00:22:49;6.80;99.90
21508;DHT22;10915;54.352;9.074;2024-03-02T00:25:16;6.80;99.90
21508;DHT22;10915;54.352;9.074;2024-03-02T00:27:42;6.80;99.90
21508;DHT22;10915;54.352;9.074;2024-03-02T00:33:31;6.90;99.90
21508;DHT22;10915;54.352;9.074;2024-03-02T00:35:57;6.90;99.90
21508;DHT22;10915;54.352;9.074;2024-03-02T00:38:23;6.80;99.90
21508;DHT22;10915;54.352;9.074;2024-03-02T00:40:49;6.90;99.90
21508;DHT22;10915;54.352;9.074;2024-03-02T00:46:04;6.80;99.90
21508;DHT22;10915;54.352;9.074;2024-03-02T00:48:30;6.80;99.90
21508;DHT22;10915;54.352;9.074;2024-03-02T00:51:03;6.90;99.90
21508;DHT22;10915;54.352;9.074;2024-03-02T00:53:32;6.90;99.90
21508;DHT22;10915;54.352;9.074;2024-03-02T00:55:59;6.90;99.90
21508;DHT22;10915;54.352;9.074;2024-03-02T00:58:25;6.90;99.90
21508;DHT22;10915;54.352;9.074;2024-03-02T01:00:50;6.90;99.90
21508;DHT22;10915;54.352;9.074;2024-03-02T01:03:16;6.90;99.90
21508;DHT22;10915;54.352;9.074;2024-03-02T01:05:42;6.90;99.90
21508;DHT22;10915;54.352;9.074;2024-03-02T01:08:09;6.90;99.90
21508;DHT22;10915;54.352;9.074;2024-03-02T01:10:34;6.90;99.90
21508;DHT22;10915;54.352;9.074;2024-03-02T01:13:00;6.90;99.90
21508;DHT22;10915;54.352;9.074;2024-03-02T01:15:26;6.90;99.90
21508;DHT22;10915;54.352;9.074;2024-03-02T01:17:51;6.90;99.90
21508;DHT22;10915;54.352;9.074;2024-03-02T01:20:17;6.90;99.90
21508;DHT22;10915;54.352;9.074;2024-03-02T01:22:43;6.90;99.90
21508;DHT22;10915;54.352;9.074;2024-03-02T01:25:09;6.90;99.90
21508;DHT22;10915;54.352;9.074;2024-03-02T01:27:35;6.90;99.90
21508;DHT22;10915;54.352;9.074;2024-03-02T01:30:01;6.90;99.90
21508;DHT22;10915;54.352;9.074;2024-03-02T01:32:26;6.90;99.90
21508;DHT22;10915;54.352;9.074;2024-03-02T01:34:52;6.80;99.90
21508;DHT22;10915;54.352;9.074;2024-03-02T01:37:18;6.80;99.90
21508;DHT22;10915;54.352;9.074;2024-03-02T01:39:43;6.80;99.90
21508;DHT22;10915;54.352;9.074;2024-03-02T01:42:09;6.70;99.90
21508;DHT22;10915;54.352;9.074;2024-03-02T01:44:36;6.80;99.90
21508;DHT22;10915;54.352;9.074;2024-03-02T01:47:01;6.80;99.90
21508;DHT22;10915;54.352;9.074;2024-03-02T01:49:27;6.80;99.90
21508;DHT22;10915;54.352;9.074;2024-03-02T01:51:53;6.80;99.90
21508;DHT22;10915;54.352;9.074;2024-03-02T01:54:21;6.80;99.90
21508;DHT22;10915;54.352;9.074;2024-03-02T01:56:46;6.80;99.90
21508;DHT22;10915;54.352;9.074;2024-03-02T01:59:12;6.80;99.90
21508;DHT22;10915;54.352;9.074;2024-03-02T02:01:38;6.80;99.90
21508;DHT22;10915;54.352;9.074;2024-03-02T02:04:05;6.80;99.90
21508;DHT22;10915;54.352;9.074;2024-03-02T02:06:32;6.80;99.90
21508;DHT22;10915;54.352;9.074;2024-03-02T02:08:58;6.80;99.90
21508;DHT22;10915;54.352;9.074;2024-03-02T02:11:24;6.80;99.90
21508;DHT22;10915;54.352;9.074;2024-03-02T02:13:49;6.80;99.90
21508;DHT22;10915;54.352;9.074;2024-03-02T02:16:15;6.90;99.90
21508;DHT22;10915;54.352;9.074;2024-03-02T02:18:41;6.80;99.90
21508;DHT22;10915;54.352;9.074;2024-03-02T02:21:06;6.80;99.90
21508;DHT22;10915;54.352;9.074;2024-03-02T02:23:32;6.80;99.90
21508;DHT22;10915;54.352;9.074;2024-03-02T02:25:58;6.80;99.90
21508;DHT22;10915;54.352;9.074;2024-03-02T02:28:23;6.80;99.90
21508;DHT22;10915;54.352;9.074;2024-03-02T02:30:49;6.80;99.90
21508;DHT22;10915;54.352;9.074;2024-03-02T02:33:15;6.80;99.90
21508;DHT22;10915;54.352;9.074;2024-03-02T02:35:40;6.80;99.90
21508;DHT22;10915;54.352;9.074;2024-03-02T02:38:06;6.80;99.90
21508;DHT22;10915;54.352;9.074;2024-03-02T02:40:32;6.80;99.90
21508;DHT22;10915;54.352;9.074;2024-03-02T02:42:58;6.80;99.90
21508;DHT22;10915;54.352;9.074;2024-03-02T02:45:25;6.80;99.90
21508;DHT22;10915;54.352;9.074;2024-03-02T02:47:50;6.80;99.90
21508;DHT22;10915;54.352;9.074;2024-03-02T02:50:16;6.80;99.90
21508;DHT22;10915;54.352;9.074;2024-03-02T02:52:42;6.80;99.90
21508;DHT22;10915;54.352;9.074;2024-03-02T02:55:12;6.80;99.90
21508;DHT22;10915;54.352;9.074;2024-03-02T02:57:40;6.80;99.90
21508;DHT22;10915;54.352;9.074;2024-03-02T03:00:11;6.80;99.90
21508;DHT22;10915;54.352;9.074;2024-03-02T03:02:41;6.80;99.90
21508;DHT22;10915;54.352;9.074;2024-03-02T03:05:08;6.80;99.90
21508;DHT22;10915;54.352;9.074;2024-03-02T03:07:34;6.80;99.90
21508;DHT22;10915;54.352;9.074;2024-03-02T03:10:00;6.90;99.90
21508;DHT22;10915;54.352;9.074;2024-03-02T03:12:26;6.90;99.90
21508;DHT22;10915;54.352;9.074;2024-03-02T03:14:52;6.90;99.90
21508;DHT22;10915;54.352;9.074;2024-03-02T03:17:17;6.90;99.90
21508;DHT22;10915;54.352;9.074;2024-03-02T03:19:43;6.90;99.90
21508;DHT22;10915;54.352;9.074;2024-03-02T03:22:09;7.00;99.90
21508;DHT22;10915;54.352;9.074;2024-03-02T03:24:34;7.00;99.90
21508;DHT22;10915;54.352;9.074;2024-03-02T03:27:00;6.90;99.90
21508;DHT22;10915;54.352;9.074;2024-03-02T03:29:26;6.90;99.90
21508;DHT22;10915;54.352;9.074;2024-03-02T03:31:51;6.90;99.90
21508;DHT22;10915;54.352;9.074;2024-03-02T03:34:17;7.00;99.90
21508;DHT22;10915;54.352;9.074;2024-03-02T03:36:43;6.90;99.90
21508;DHT22;10915;54.352;9.074;2024-03-02T03:39:08;6.90;99.90
21508;DHT22;10915;54.352;9.074;2024-03-02T03:41:34;6.90;99.90
21508;DHT22;10915;54.352;9.074;2024-03-02T03:44:00;6.90;99.90
21508;DHT22;10915;54.352;9.074;2024-03-02T03:46:25;6.90;99.90
21508;DHT22;10915;54.352;9.074;2024-03-02T03:48:51;6.90;99.90
21508;DHT22;10915;54.352;9.074;2024-03-02T03:51:16;6.90;99.90
21508;DHT22;10915;54.352;9.074;2024-03-02T03:53:42;6.80;99.90
21508;DHT22;10915;54.352;9.074;2024-03-02T03:56:07;6.70;99.90
21508;DHT22;10915;54.352;9.074;2024-03-02T03:58:33;6.70;99.90
21508;DHT22;10915;54.352;9.074;2024-03-02T04:00:59;6.60;99.90
21508;DHT22;10915;54.352;9.074;2024-03-02T04:03:24;6.60;99.90
21508;DHT22;10915;54.352;9.074;2024-03-02T04:05:51;6.60;99.90
21508;DHT22;10915;54.352;9.074;2024-03-02T04:08:17;6.60;99.90
21508;DHT22;10915;54.352;9.074;2024-03-02T04:10:43;6.60;99.90
21508;DHT22;10915;54.352;9.074;2024-03-02T04:13:08;6.60;99.90
21508;DHT22;10915;54.352;9.074;2024-03-02T04:15:35;6.60;99.90
21508;DHT22;10915;54.352;9.074;2024-03-02T04:18:00;6.50;99.90
21508;DHT22;10915;54.352;9.074;2024-03-02T04:20:26;6.50;99.90
21508;DHT22;10915;54.352;9.074;2024-03-02T04:22:51;6.40;99.90
21508;DHT22;10915;54.352;9.074;2024-03-02T04:25:17;6.40;99.90
21508;DHT22;10915;54.352;9.074;2024-03-02T04:27:43;6.40;99.90
21508;DHT22;10915;54.352;9.074;2024-03-02T04:30:08;6.40;99.90
21508;DHT22;10915;54.352;9.074;2024-03-02T04:32:34;6.40;99.90
21508;DHT22;10915;54.352;9.074;2024-03-02T04:35:01;6.40;99.90
21508;DHT22;10915;54.352;9.074;2024-03-02T04:37:27;6.40;99.90
21508;DHT22;10915;54.352;9.074;2024-03-02T04:39:52;6.40;99.90
21508;DHT22;10915;54.352;9.074;2024-03-02T04:42:18;6.40;99.90
21508;DHT22;10915;54.352;9.074;2024-03-02T04:44:44;6.30;99.90
21508;DHT22;10915;54.352;9.074;2024-03-02T04:47:09;6.30;99.90
21508;DHT22;10915;54.352;9.074;2024-03-02T04:49:35;6.30;99.90
21508;DHT22;10915;54.352;9.074;2024-03-02T04:52:00;6.20;99.90
21508;DHT22;10915;54.352;9.074;2024-03-02T04:54:26;6.20;99.90
21508;DHT22;10915;54.352;9.074;2024-03-02T04:56:52;6.20;99.90
21508;DHT22;10915;54.352;9.074;2024-03-02T04:59:18;6.20;99.90
21508;DHT22;10915;54.352;9.074;2024-03-02T05:01:44;6.20;99.90
21508;DHT22;10915;54.352;9.074;2024-03-02T05:04:10;6.20;99.90
21508;DHT22;10915;54.352;9.074;2024-03-02T05:06:37;6.20;99.90
21508;DHT22;10915;54.352;9.074;2024-03-02T05:09:04;6.30;99.90
21508;DHT22;10915;54.352;9.074;2024-03-02T05:11:30;6.30;99.90
21508;DHT22;10915;54.352;9.074;2024-03-02T05:14:05;6.30;99.90
21508;DHT22;10915;54.352;9.074;2024-03-02T05:16:35;6.30;99.90
21508;DHT22;10915;54.352;9.074;2024-03-02T05:19:02;6.30;99.90
21508;DHT22;10915;54.352;9.074;2024-03-02T05:21:27;6.40;99.90
21508;DHT22;10915;54.352;9.074;2024-03-02T05:23:53;6.40;99.90
21508;DHT22;10915;54.352;9.074;2024-03-02T05:26:19;6.40;99.90
21508;DHT22;10915;54.352;9.074;2024-03-02T05:28:44;6.50;99.90
21508;DHT22;10915;54.352;9.074;2024-03-02T05:31:10;6.50;99.90
21508;DHT22;10915;54.352;9.074;2024-03-02T05:33:39;6.50;99.90
21508;DHT22;10915;54.352;9.074;2024-03-02T05:36:05;6.50;99.90
21508;DHT22;10915;54.352;9.074;2024-03-02T05:38:34;6.40;99.90
21508;DHT22;10915;54.352;9.074;2024-03-02T05:40:59;6.30;99.90
21508;DHT22;10915;54.352;9.074;2024-03-02T05:43:25;6.40;99.90
21508;DHT22;10915;54.352;9.074;2024-03-02T05:45:51;6.40;99.90
21508;DHT22;10915;54.352;9.074;2024-03-02T05:48:16;6.40;99.90
21508;DHT22;10915;54.352;9.074;2024-03-02T05:50:42;6.50;99.90
21508;DHT22;10915;54.352;9.074;2024-03-02T05:53:07;6.50;99.90
21508;DHT22;10915;54.352;9.074;2024-03-02T05:55:33;6.50;99.90
21508;DHT22;10915;54.352;9.074;2024-03-02T05:57:58;6.50;99.90
21508;DHT22;10915;54.352;9.074;2024-03-02T06:00:42;6.60;99.90
21508;DHT22;10915;54.352;9.074;2024-03-02T06:03:08;6.60;99.90
21508;DHT22;10915;54.352;9.074;2024-03-02T06:05:34;6.60;99.90
21508;DHT22;10915;54.352;9.074;2024-03-02T06:08:00;6.70;99.90
21508;DHT22;10915;54.352;9.074;2024-03-02T06:10:26;6.60;99.90
21508;DHT22;10915;54.352;9.074;2024-03-02T06:12:51;6.60;99.90
21508;DHT22;10915;54.352;9.074;2024-03-02T06:15:17;6.60;99.90
21508;DHT22;10915;54.352;9.074;2024-03-02T06:17:42;6.60;99.90
21508;DHT22;10915;54.352;9.074;2024-03-02T06:20:08;6.50;99.90
21508;DHT22;10915;54.352;9.074;2024-03-02T06:22:34;6.50;99.90
21508;DHT22;10915;54.352;9.074;2024-03-02T06:25:00;6.60;99.90
21508;DHT22;10915;54.352;9.074;2024-03-02T06:27:26;6.50;99.90
21508;DHT22;10915;54.352;9.074;2024-03-02T06:29:51;6.60;99.90
21508;DHT22;10915;54.352;9.074;2024-03-02T06:32:17;6.50;99.90
21508;DHT22;10915;54.352;9.074;2024-03-02T06:34:44;6.50;99.90
21508;DHT22;10915;54.352;9.074;2024-03-02T06:37:10;6.50;99.90
21508;DHT22;10915;54.352;9.074;2024-03-02T06:39:36;6.50;99.90
21508;DHT22;10915;54.352;9.074;2024-03-02T06:42:01;6.50;99.90
21508;DHT22;10915;54.352;9.074;2024-03-02T06:44:27;6.60;99.90
21508;DHT22;10915;54.352;9.074;2024-03-02T06:46:52;6.60;99.90
21508;DHT22;10915;54.352;9.074;2024-03-02T06:49:18;6.60;99.90
21508;DHT22;10915;54.352;9.074;2024-03-02T06:51:44;6.60;99.90
21508;DHT22;10915;54.352;9.074;2024-03-02T06:54:10;6.70;99.90
21508;DHT22;10915;54.352;9.074;2024-03-02T06:56:35;6.70;99.90
21508;DHT22;10915;54.352;9.074;2024-03-02T06:59:01;6.80;99.90
21508;DHT22;10915;54.352;9.074;2024-03-02T07:01:26;7.00;99.90
21508;DHT22;10915;54.352;9.074;2024-03-02T07:03:53;7.30;99.90
21508;DHT22;10915;54.352;9.074;2024-03-02T07:06:19;7.40;99.90
21508;DHT22;10915;54.352;9.074;2024-03-02T07:08:45;7.50;99.90
21508;DHT22;10915;54.352;9.074;2024-03-02T07:11:10;7.50;99.90
21508;DHT22;10915;54.352;9.074;2024-03-02T07:13:36;7.50;99.90
21508;DHT22;10915;54.352;9.074;2024-03-02T07:16:01;7.40;99.90
21508;DHT22;10915;54.352;9.074;2024-03-02T07:18:36;7.40;99.90
21508;DHT22;10915;54.352;9.074;2024-03-02T07:21:10;7.50;99.90
21508;DHT22;10915;54.352;9.074;2024-03-02T07:23:36;7.60;99.90
21508;DHT22;10915;54.352;9.074;2024-03-02T07:26:02;7.90;99.90
21508;DHT22;10915;54.352;9.074;2024-03-02T07:28:28;8.30;99.90
21508;DHT22;10915;54.352;9.074;2024-03-02T07:31:01;8.80;99.90
21508;DHT22;10915;54.352;9.074;2024-03-02T07:33:26;9.10;99.90
21508;DHT22;10915;54.352;9.074;2024-03-02T07:35:53;9.20;99.90
21508;DHT22;10915;54.352;9.074;2024-03-02T07:38:19;9.20;99.90
21508;DHT22;10915;54.352;9.074;2024-03-02T07:40:45;9.10;99.90
21508;DHT22;10915;54.352;9.074;2024-03-02T07:43:10;9.10;99.90
21508;DHT22;10915;54.352;9.074;2024-03-02T07:45:36;9.10;99.90
21508;DHT22;10915;54.352;9.074;2024-03-02T07:48:02;9.20;99.90
21508;DHT22;10915;54.352;9.074;2024-03-02T07:50:29;9.40;99.90
21508;DHT22;10915;54.352;9.074;2024-03-02T07:52:55;9.50;99.90
21508;DHT22;10915;54.352;9.074;2024-03-02T07:55:21;9.60;99.90
21508;DHT22;10915;54.352;9.074;2024-03-02T07:57:49;9.60;99.90
21508;DHT22;10915;54.352;9.074;2024-03-02T08:00:49;9.60;99.90
21508;DHT22;10915;54.352;9.074;2024-03-02T08:03:15;9.70;99.90
21508;DHT22;10915;54.352;9.074;2024-03-02T08:05:40;9.70;99.90
21508;DHT22;10915;54.352;9.074;2024-03-02T08:08:06;9.80;99.90
21508;DHT22;10915;54.352;9.074;2024-03-02T08:10:31;9.90;99.90
21508;DHT22;10915;54.352;9.074;2024-03-02T08:12:59;10.10;99.90
21508;DHT22;10915;54.352;9.074;2024-03-02T08:15:24;10.30;99.90
21508;DHT22;10915;54.352;9.074;2024-03-02T08:17:50;10.40;99.90
21508;DHT22;10915;54.352;9.074;2024-03-02T08:20:15;10.50;99.90
21508;DHT22;10915;54.352;9.074;2024-03-02T08:22:41;10.70;99.90
21508;DHT22;10915;54.352;9.074;2024-03-02T08:25:07;10.70;99.90
21508;DHT22;10915;54.352;9.074;2024-03-02T08:27:33;10.70;99.90
21508;DHT22;10915;54.352;9.074;2024-03-02T08:29:59;10.70;99.90
21508;DHT22;10915;54.352;9.074;2024-03-02T08:32:25;10.80;99.90
21508;DHT22;10915;54.352;9.074;2024-03-02T08:34:50;10.70;99.90
21508;DHT22;10915;54.352;9.074;2024-03-02T08:37:16;10.70;99.90
21508;DHT22;10915;54.352;9.074;2024-03-02T08:39:42;10.60;99.90
21508;DHT22;10915;54.352;9.074;2024-03-02T08:42:07;10.50;99.90
21508;DHT22;10915;54.352;9.074;2024-03-02T08:44:33;10.50;99.90
21508;DHT22;10915;54.352;9.074;2024-03-02T08:46:59;10.40;99.90
21508;DHT22;10915;54.352;9.074;2024-03-02T08:49:24;10.30;99.90
21508;DHT22;10915;54.352;9.074;2024-03-02T08:51:50;10.20;99.90
21508;DHT22;10915;54.352;9.074;2024-03-02T08:54:21;10.30;99.90
21508;DHT22;10915;54.352;9.074;2024-03-02T08:56:48;10.40;99.90
21508;DHT22;10915;54.352;9.074;2024-03-02T08:59:14;10.50;99.90
21508;DHT22;10915;54.352;9.074;2024-03-02T09:01:39;10.60;99.90
21508;DHT22;10915;54.352;9.074;2024-03-02T09:04:07;10.60;99.90
21508;DHT22;10915;54.352;9.074;2024-03-02T09:06:34;10.70;99.90
21508;DHT22;10915;54.352;9.074;2024-03-02T09:08:59;10.90;99.90
21508;DHT22;10915;54.352;9.074;2024-03-02T09:11:25;11.00;99.90
21508;DHT22;10915;54.352;9.074;2024-03-02T09:13:51;11.00;99.90
21508;DHT22;10915;54.352;9.074;2024-03-02T09:16:17;11.10;99.90
21508;DHT22;10915;54.352;9.074;2024-03-02T09:18:42;11.20;99.90
21508;DHT22;10915;54.352;9.074;2024-03-02T09:21:08;11.30;99.90
21508;DHT22;10915;54.352;9.074;2024-03-02T09:23:34;11.40;99.90
21508;DHT22;10915;54.352;9.074;2024-03-02T09:25:59;11.60;99.90
21508;DHT22;10915;54.352;9.074;2024-03-02T09:28:25;11.60;99.90
21508;DHT22;10915;54.352;9.074;2024-03-02T09:30:50;11.70;99.90
21508;DHT22;10915;54.352;9.074;2024-03-02T09:33:16;11.60;99.90
21508;DHT22;10915;54.352;9.074;2024-03-02T09:35:42;11.70;99.90
21508;DHT22;10915;54.352;9.074;2024-03-02T09:38:07;11.80;99.90
21508;DHT22;10915;54.352;9.074;2024-03-02T09:40:33;11.70;99.90
21508;DHT22;10915;54.352;9.074;2024-03-02T09:42:59;11.80;99.90
21508;DHT22;10915;54.352;9.074;2024-03-02T09:45:25;11.60;99.90
21508;DHT22;10915;54.352;9.074;2024-03-02T09:47:52;11.60;99.90
21508;DHT22;10915;54.352;9.074;2024-03-02T09:50:17;11.60;99.90
21508;DHT22;10915;54.352;9.074;2024-03-02T09:52:43;11.50;99.90
21508;DHT22;10915;54.352;9.074;2024-03-02T09:55:09;11.50;99.90
21508;DHT22;10915;54.352;9.074;2024-03-02T09:57:36;11.40;99.90
21508;DHT22;10915;54.352;9.074;2024-03-02T10:00:02;11.40;99.90
21508;DHT22;10915;54.352;9.074;2024-03-02T10:02:28;11.40;99.90
21508;DHT22;10915;54.352;9.074;2024-03-02T10:04:54;11.50;99.90
21508;DHT22;10915;54.352;9.074;2024-03-02T10:07:19;11.60;99.90
21508;DHT22;10915;54.352;9.074;2024-03-02T10:09:47;11.70;99.90
21508;DHT22;10915;54.352;9.074;2024-03-02T10:12:14;11.70;99.90
21508;DHT22;10915;54.352;9.074;2024-03-02T10:14:41;11.70;99.90
21508;DHT22;10915;54.352;9.074;2024-03-02T10:17:09;11.90;99.90
21508;DHT22;10915;54.352;9.074;2024-03-02T10:19:35;12.00;99.90
21508;DHT22;10915;54.352;9.074;2024-03-02T10:22:06;11.90;99.90
21508;DHT22;10915;54.352;9.074;2024-03-02T10:24:43;11.80;99.90
21508;DHT22;10915;54.352;9.074;2024-03-02T10:27:22;11.80;99.90
21508;DHT22;10915;54.352;9.074;2024-03-02T10:29:48;11.80;99.90
21508;DHT22;10915;54.352;9.074;2024-03-02T10:32:15;11.90;99.90
21508;DHT22;10915;54.352;9.074;2024-03-02T10:34:42;11.80;99.90
21508;DHT22;10915;54.352;9.074;2024-03-02T10:37:08;11.80;99.90
21508;DHT22;10915;54.352;9.074;2024-03-02T10:39:37;11.80;99.90
21508;DHT22;10915;54.352;9.074;2024-03-02T10:42:03;11.70;99.90
21508;DHT22;10915;54.352;9.074;2024-03-02T10:44:31;11.70;99.90
21508;DHT22;10915;54.352;9.074;2024-03-02T10:47:01;11.80;99.90
21508;DHT22;10915;54.352;9.074;2024-03-02T10:49:29;11.90;99.90
21508;DHT22;10915;54.352;9.074;2024-03-02T10:51:55;12.00;99.90
21508;DHT22;10915;54.352;9.074;2024-03-02T10:54:20;12.00;99.90
21508;DHT22;10915;54.352;9.074;2024-03-02T10:56:53;12.00;99.90
21508;DHT22;10915;54.352;9.074;2024-03-02T10:59:35;12.20;99.90
21508;DHT22;10915;54.352;9.074;2024-03-02T11:02:02;12.40;99.90
21508;DHT22;10915;54.352;9.074;2024-03-02T11:04:30;12.60;99.90
21508;DHT22;10915;54.352;9.074;2024-03-02T11:07:03;12.70;99.90
21508;DHT22;10915;54.352;9.074;2024-03-02T11:09:30;12.80;99.90
21508;DHT22;10915;54.352;9.074;2024-03-02T11:12:19;13.00;99.90
21508;DHT22;10915;54.352;9.074;2024-03-02T11:14:45;13.10;99.90
21508;DHT22;10915;54.352;9.074;2024-03-02T11:17:11;13.20;99.90
21508;DHT22;10915;54.352;9.074;2024-03-02T11:19:39;13.20;99.90
21508;DHT22;10915;54.352;9.074;2024-03-02T11:22:06;13.20;99.90
21508;DHT22;10915;54.352;9.074;2024-03-02T11:24:32;13.20;99.90
21508;DHT22;10915;54.352;9.074;2024-03-02T11:26:59;13.20;99.90
21508;DHT22;10915;54.352;9.074;2024-03-02T11:32:05;13.00;99.90
21508;DHT22;10915;54.352;9.074;2024-03-02T11:34:33;12.90;99.90
21508;DHT22;10915;54.352;9.074;2024-03-02T11:37:03;12.90;99.90
21508;DHT22;10915;54.352;9.074;2024-03-02T11:39:29;12.90;99.90
21508;DHT22;10915;54.352;9.074;2024-03-02T11:41:59;12.90;99.90
21508;DHT22;10915;54.352;9.074;2024-03-02T11:44:28;13.00;99.90
21508;DHT22;10915;54.352;9.074;2024-03-02T11:47:08;13.10;99.90
21508;DHT22;10915;54.352;9.074;2024-03-02T11:49:46;13.10;99.90
21508;DHT22;10915;54.352;9.074;2024-03-02T11:52:14;13.10;99.90
21508;DHT22;10915;54.352;9.074;2024-03-02T11:54:45;13.10;99.90
21508;DHT22;10915;54.352;9.074;2024-03-02T11:57:13;13.00;99.90
21508;DHT22;10915;54.352;9.074;2024-03-02T11:59:40;13.00;99.90
21508;DHT22;10915;54.352;9.074;2024-03-02T12:02:06;13.10;99.90
21508;DHT22;10915;54.352;9.074;2024-03-02T12:04:32;13.10;99.90
21508;DHT22;10915;54.352;9.074;2024-03-02T12:07:01;13.00;99.90
21508;DHT22;10915;54.352;9.074;2024-03-02T12:09:27;13.00;99.90
21508;DHT22;10915;54.352;9.074;2024-03-02T12:14:33;13.10;99.90
21508;DHT22;10915;54.352;9.074;2024-03-02T12:16:59;13.20;99.90
21508;DHT22;10915;54.352;9.074;2024-03-02T12:19:25;13.20;99.90
21508;DHT22;10915;54.352;9.074;2024-03-02T12:21:52;13.20;99.90
21508;DHT22;10915;54.352;9.074;2024-03-02T12:24:18;13.20;99.90
21508;DHT22;10915;54.352;9.074;2024-03-02T12:26:44;13.20;99.90
21508;DHT22;10915;54.352;9.074;2024-03-02T12:29:14;13.40;99.90
21508;DHT22;10915;54.352;9.074;2024-03-02T12:31:41;13.50;99.90
21508;DHT22;10915;54.352;9.074;2024-03-02T12:34:07;13.70;99.90
21508;DHT22;10915;54.352;9.074;2024-03-02T12:36:39;13.80;99.90
21508;DHT22;10915;54.352;9.074;2024-03-02T12:39:07;13.90;99.90
21508;DHT22;10915;54.352;9.074;2024-03-02T12:41:36;13.90;99.90
21508;DHT22;10915;54.352;9.074;2024-03-02T12:44:02;13.80;99.90
21508;DHT22;10915;54.352;9.074;2024-03-02T12:46:27;13.80;99.90
21508;DHT22;10915;54.352;9.074;2024-03-02T12:48:53;13.70;99.90
21508;DHT22;10915;54.352;9.074;2024-03-02T12:51:19;13.60;99.90
21508;DHT22;10915;54.352;9.074;2024-03-02T12:53:45;13.50;99.90
21508;DHT22;10915;54.352;9.074;2024-03-02T12:56:10;13.40;99.90
21508;DHT22;10915;54.352;9.074;2024-03-02T12:58:40;13.20;99.90
21508;DHT22;10915;54.352;9.074;2024-03-02T13:01:07;13.20;99.90
21508;DHT22;10915;54.352;9.074;2024-03-02T13:03:38;13.30;99.90
21508;DHT22;10915;54.352;9.074;2024-03-02T13:06:05;13.30;99.90
21508;DHT22;10915;54.352;9.074;2024-03-02T13:08:32;13.40;99.90
21508;DHT22;10915;54.352;9.074;2024-03-02T13:10:58;13.50;99.90
21508;DHT22;10915;54.352;9.074;2024-03-02T13:13:23;13.60;99.90
21508;DHT22;10915;54.352;9.074;2024-03-02T13:15:49;13.70;99.90
21508;DHT22;10915;54.352;9.074;2024-03-02T13:18:17;13.70;99.90
21508;DHT22;10915;54.352;9.074;2024-03-02T13:20:43;13.80;99.90
21508;DHT22;10915;54.352;9.074;2024-03-02T13:23:08;13.90;99.90
21508;DHT22;10915;54.352;9.074;2024-03-02T13:25:34;14.00;99.90
21508;DHT22;10915;54.352;9.074;2024-03-02T13:28:00;13.90;99.90
21508;DHT22;10915;54.352;9.074;2024-03-02T13:30:26;13.80;99.90
21508;DHT22;10915;54.352;9.074;2024-03-02T13:32:51;13.90;99.90
21508;DHT22;10915;54.352;9.074;2024-03-02T13:35:18;13.80;99.90
21508;DHT22;10915;54.352;9.074;2024-03-02T13:37:44;13.80;99.90
21508;DHT22;10915;54.352;9.074;2024-03-02T13:40:10;13.90;99.90
21508;DHT22;10915;54.352;9.074;2024-03-02T13:42:39;13.90;99.90
21508;DHT22;10915;54.352;9.074;2024-03-02T13:45:06;13.90;99.90
21508;DHT22;10915;54.352;9.074;2024-03-02T13:47:32;13.90;99.90
21508;DHT22;10915;54.352;9.074;2024-03-02T13:49:58;13.80;99.90
21508;DHT22;10915;54.352;9.074;2024-03-02T13:52:23;13.80;99.90
21508;DHT22;10915;54.352;9.074;2024-03-02T13:54:51;13.70;99.90
21508;DHT22;10915;54.352;9.074;2024-03-02T13:57:17;13.70;99.90
21508;DHT22;10915;54.352;9.074;2024-03-02T13:59:45;13.80;99.90
21508;DHT22;10915;54.352;9.074;2024-03-02T14:02:12;13.70;99.90
21508;DHT22;10915;54.352;9.074;2024-03-02T14:04:37;13.70;99.90
21508;DHT22;10915;54.352;9.074;2024-03-02T14:07:04;13.60;99.90
21508;DHT22;10915;54.352;9.074;2024-03-02T14:09:32;13.60;99.90
21508;DHT22;10915;54.352;9.074;2024-03-02T14:11:58;13.60;99.90
21508;DHT22;10915;54.352;9.074;2024-03-02T14:14:26;13.50;99.90
21508;DHT22;10915;54.352;9.074;2024-03-02T14:16:53;13.40;99.90
21508;DHT22;10915;54.352;9.074;2024-03-02T14:19:19;13.50;99.90
21508;DHT22;10915;54.352;9.074;2024-03-02T14:21:47;13.50;99.90
21508;DHT22;10915;54.352;9.074;2024-03-02T14:24:13;13.40;99.90
21508;DHT22;10915;54.352;9.074;2024-03-02T14:26:38;13.40;99.90
21508;DHT22;10915;54.352;9.074;2024-03-02T14:29:04;13.40;99.90
21508;DHT22;10915;54.352;9.074;2024-03-02T14:31:30;13.40;99.90
21508;DHT22;10915;54.352;9.074;2024-03-02T14:33:56;13.40;99.90
21508;DHT22;10915;54.352;9.074;2024-03-02T14:36:22;13.30;99.90
21508;DHT22;10915;54.352;9.074;2024-03-02T14:38:48;13.40;99.90
21508;DHT22;10915;54.352;9.074;2024-03-02T14:41:14;13.40;99.90
21508;DHT22;10915;54.352;9.074;2024-03-02T14:43:40;13.50;99.90
21508;DHT22;10915;54.352;9.074;2024-03-02T14:46:06;13.50;99.90
21508;DHT22;10915;54.352;9.074;2024-03-02T14:48:38;13.50;99.90
21508;DHT22;10915;54.352;9.074;2024-03-02T14:51:04;13.50;99.90
21508;DHT22;10915;54.352;9.074;2024-03-02T14:53:30;13.50;99.90
21508;DHT22;10915;54.352;9.074;2024-03-02T14:55:55;13.50;99.90
21508;DHT22;10915;54.352;9.074;2024-03-02T14:58:21;13.50;99.90
21508;DHT22;10915;54.352;9.074;2024-03-02T15:00:47;13.50;99.90
21508;DHT22;10915;54.352;9.074;2024-03-02T15:03:13;13.50;99.90
21508;DHT22;10915;54.352;9.074;2024-03-02T15:05:39;13.40;99.90
21508;DHT22;10915;54.352;9.074;2024-03-02T15:08:05;13.30;99.90
21508;DHT22;10915;54.352;9.074;2024-03-02T15:10:32;13.30;99.90
21508;DHT22;10915;54.352;9.074;2024-03-02T15:12:58;13.20;99.90
21508;DHT22;10915;54.352;9.074;2024-03-02T15:15:24;13.20;99.90
21508;DHT22;10915;54.352;9.074;2024-03-02T15:17:49;13.30;99.90
21508;DHT22;10915;54.352;9.074;2024-03-02T15:20:16;13.30;99.90
21508;DHT22;10915;54.352;9.074;2024-03-02T15:22:41;13.20;99.90
21508;DHT22;10915;54.352;9.074;2024-03-02T15:25:07;13.20;99.90
21508;DHT22;10915;54.352;9.074;2024-03-02T15:27:33;13.10;99.90
21508;DHT22;10915;54.352;9.074;2024-03-02T15:29:58;13.00;99.90
21508;DHT22;10915;54.352;9.074;2024-03-02T15:32:24;13.00;99.90
21508;DHT22;10915;54.352;9.074;2024-03-02T15:34:52;13.00;99.90
21508;DHT22;10915;54.352;9.074;2024-03-02T15:37:18;13.00;99.90
21508;DHT22;10915;54.352;9.074;2024-03-02T15:39:44;12.90;99.90
21508;DHT22;10915;54.352;9.074;2024-03-02T15:42:09;12.80;99.90
21508;DHT22;10915;54.352;9.074;2024-03-02T15:44:35;12.90;99.90
21508;DHT22;10915;54.352;9.074;2024-03-02T15:47:01;12.90;99.90